Ottoman Nobility — TCDA2 — position and weather

sailwx.info

Track history (hours):
 
Tides and Currents Weather Stations Pressure Air Temp Water Temp Dewpoint Dewpoint Depression Visibility Wind Speed Wind Dir Waves Ship Positions

Ottoman Nobility

Last reported at 2018-Jan-22 13:50 UTC. Time now 2018-Jan-23 08:24 UTC.
Position N 29°12' W 014°04'.

Length 269 m; draft 16.1 m.

Type: Tanker. MMSI: 271000773.

Date/timePositionNaut miles runAvg speedWind from/ knotsBaromVisibWave heightAir tempDewpointWater temp
2018-Jan-22 13:50N 29°12' W 014°04'412.7
2018-Jan-22 13:30N 29°09' W 014°07'612.6
2018-Jan-22 13:00N 29°04' W 014°11'912.8
2018-Jan-22 12:20N 28°57' W 014°17'412.9
2018-Jan-22 12:00N 28°54' W 014°20'612.8
2018-Jan-22 11:30N 28°49' W 014°25'612.7
2018-Jan-22 11:00N 28°44' W 014°29'712.9
2018-Jan-22 10:30N 28°38' W 014°33'612.8
2018-Jan-22 10:00N 28°33' W 014°38'1112.4
2018-Jan-22 09:06N 28°24' W 014°46'112.4
2018-Jan-22 09:00N 28°23' W 014°47'612.2
2018-Jan-22 08:31N 28°18' W 014°50'712.5
2018-Jan-22 07:59N 28°12' W 014°53'612.8
2018-Jan-22 07:30N 28°06' W 014°55'612.9
2018-Jan-22 07:00N 28°00' W 014°58'612.7
2018-Jan-22 06:30N 27°54' W 015°00'712.7
2018-Jan-22 05:59N 27°48' W 015°03'612.8
2018-Jan-22 05:30N 27°42' W 015°04'712.8
2018-Jan-22 04:58N 27°36' W 015°05'612.5
2018-Jan-22 04:30N 27°30' W 015°07'612.4
2018-Jan-22 04:00N 27°24' W 015°08'711.9
2018-Jan-22 03:23N 27°16' W 015°10'  
2018-Jan-18 01:18N 08°23' W 014°55'412.1
2018-Jan-18 01:00N 08°20' W 014°52'1212.2
2018-Jan-18 00:00N 08°12' W 014°44'112.4
2018-Jan-17 23:57N 08°11' W 014°43'  
Track history (hours):
 
Tides and Currents Weather Stations Pressure Air Temp Water Temp Dewpoint Dewpoint Depression Visibility Wind Speed Wind Dir Waves Ship Positions

Ottoman Nobility

Last reported at 2018-Jan-22 13:50 UTC. Time now 2018-Jan-23 08:24 UTC.
Position N 29°12' W 014°04'.

Length 269 m; draft 16.1 m.

Type: Tanker. MMSI: 271000773.

Date/timePositionNaut miles runAvg speedWind from/ knotsBaromVisibWave heightAir tempDewpointWater temp
2018-Jan-22 13:50N 29°12' W 014°04'412.7
2018-Jan-22 13:30N 29°09' W 014°07'612.6
2018-Jan-22 13:00N 29°04' W 014°11'912.8
2018-Jan-22 12:20N 28°57' W 014°17'412.9
2018-Jan-22 12:00N 28°54' W 014°20'612.8
2018-Jan-22 11:30N 28°49' W 014°25'612.7
2018-Jan-22 11:00N 28°44' W 014°29'712.9
2018-Jan-22 10:30N 28°38' W 014°33'612.8
2018-Jan-22 10:00N 28°33' W 014°38'1112.4
2018-Jan-22 09:06N 28°24' W 014°46'112.4
2018-Jan-22 09:00N 28°23' W 014°47'612.2
2018-Jan-22 08:31N 28°18' W 014°50'712.5
2018-Jan-22 07:59N 28°12' W 014°53'612.8
2018-Jan-22 07:30N 28°06' W 014°55'612.9
2018-Jan-22 07:00N 28°00' W 014°58'612.7
2018-Jan-22 06:30N 27°54' W 015°00'712.7
2018-Jan-22 05:59N 27°48' W 015°03'612.8
2018-Jan-22 05:30N 27°42' W 015°04'712.8
2018-Jan-22 04:58N 27°36' W 015°05'612.5
2018-Jan-22 04:30N 27°30' W 015°07'612.4
2018-Jan-22 04:00N 27°24' W 015°08'711.9
2018-Jan-22 03:23N 27°16' W 015°10'  
2018-Jan-18 01:18N 08°23' W 014°55'412.1
2018-Jan-18 01:00N 08°20' W 014°52'1212.2
2018-Jan-18 00:00N 08°12' W 014°44'112.4
2018-Jan-17 23:57N 08°11' W 014°43'  

Dump ship's entire track history